createdAt,value
2019-03-08T00:00:46.895Z,8.62
2019-03-08T00:01:46.882Z,8.56
2019-03-08T00:02:46.876Z,8.70
2019-03-08T00:03:46.861Z,8.63
2019-03-08T00:04:46.849Z,8.65
2019-03-08T00:05:46.873Z,8.65
2019-03-08T00:06:46.826Z,8.65
2019-03-08T00:07:46.815Z,8.70
2019-03-08T00:08:46.805Z,8.68
2019-03-08T00:09:46.794Z,8.65
2019-03-08T00:10:46.783Z,8.66
2019-03-08T00:11:46.807Z,8.63
2019-03-08T00:12:46.762Z,8.65
2019-03-08T00:13:46.755Z,8.65
2019-03-08T00:14:46.739Z,8.62
2019-03-08T00:15:46.728Z,8.63
2019-03-08T00:16:46.718Z,8.62
2019-03-08T00:17:46.743Z,8.59
2019-03-08T00:18:46.696Z,8.61
2019-03-08T00:19:46.685Z,8.62
2019-03-08T00:20:46.674Z,8.61
2019-03-08T00:21:46.664Z,8.56
2019-03-08T00:22:46.652Z,8.62
2019-03-08T00:23:46.679Z,8.55
2019-03-08T00:24:46.633Z,8.61
2019-03-08T00:25:46.620Z,8.58
2019-03-08T00:26:46.617Z,8.65
2019-03-08T00:27:46.605Z,8.63
2019-03-08T00:28:46.588Z,8.65
2019-03-08T00:29:46.615Z,8.59
2019-03-08T00:30:46.569Z,8.65
2019-03-08T00:31:46.557Z,8.62
2019-03-08T00:32:46.545Z,8.63
2019-03-08T00:33:46.533Z,8.59
2019-03-08T00:34:46.531Z,8.56
2019-03-08T00:35:46.563Z,8.53
2019-03-08T00:36:46.502Z,8.56
2019-03-08T00:37:46.495Z,8.58
2019-03-08T00:38:46.481Z,8.56
2019-03-08T00:39:46.471Z,8.55
2019-03-08T00:40:46.462Z,8.59
2019-03-08T00:41:46.491Z,8.59
2019-03-08T00:42:46.439Z,8.53
2019-03-08T00:43:46.427Z,8.53
2019-03-08T00:44:46.420Z,8.56
2019-03-08T00:45:46.406Z,8.48
2019-03-08T00:46:46.404Z,8.56
2019-03-08T00:47:46.420Z,8.58
2019-03-08T00:48:46.409Z,8.58
2019-03-08T00:49:46.362Z,8.53
2019-03-08T00:50:46.353Z,8.53
2019-03-08T00:51:46.342Z,8.52
2019-03-08T00:52:46.332Z,8.53
2019-03-08T00:53:46.358Z,8.55
2019-03-08T00:54:46.347Z,8.52
2019-03-08T00:55:46.299Z,8.55
2019-03-08T00:56:46.293Z,8.43
2019-03-08T00:57:46.296Z,8.50
2019-03-08T00:58:46.268Z,8.40
2019-03-08T00:59:46.294Z,8.47
2019-03-08T01:00:46.247Z,8.44
2019-03-08T01:01:46.237Z,8.45
2019-03-08T01:02:46.223Z,8.43
2019-03-08T01:03:46.213Z,8.38
2019-03-08T01:04:46.203Z,8.38
2019-03-08T01:05:46.231Z,8.50
2019-03-08T01:06:46.182Z,8.41
2019-03-08T01:07:46.170Z,8.43
2019-03-08T01:08:46.159Z,8.33
2019-03-08T01:09:46.150Z,8.36
2019-03-08T01:10:46.142Z,8.45
2019-03-08T01:11:46.168Z,8.37
2019-03-08T01:12:46.117Z,8.41
2019-03-08T01:13:46.106Z,8.37
2019-03-08T01:14:46.098Z,8.36
2019-03-08T01:15:46.085Z,8.30
2019-03-08T01:16:46.078Z,8.38
2019-03-08T01:17:46.100Z,8.44
2019-03-08T01:18:46.055Z,8.40
2019-03-08T01:19:46.041Z,8.44
2019-03-08T01:20:46.033Z,8.41
2019-03-08T01:21:46.023Z,8.38
2019-03-08T01:22:46.011Z,8.37
2019-03-08T01:23:46.037Z,8.47
2019-03-08T01:24:45.991Z,8.38
2019-03-08T01:25:45.977Z,8.41
2019-03-08T01:26:45.970Z,8.37
2019-03-08T01:27:45.958Z,8.33
2019-03-08T01:28:45.954Z,8.33
2019-03-08T01:29:45.994Z,8.38
2019-03-08T01:30:45.925Z,8.30
2019-03-08T01:31:45.914Z,8.33
2019-03-08T01:32:45.913Z,8.33
2019-03-08T01:33:45.896Z,8.29
2019-03-08T01:34:45.883Z,8.38
2019-03-08T01:35:45.896Z,8.34
2019-03-08T01:36:45.899Z,8.33
2019-03-08T01:37:45.850Z,8.30
2019-03-08T01:38:45.840Z,8.33
2019-03-08T01:39:45.830Z,8.30
2019-03-08T01:40:45.858Z,8.25
2019-03-08T01:41:45.810Z,8.34
2019-03-08T01:42:45.795Z,8.20
2019-03-08T01:43:45.803Z,8.26
2019-03-08T01:44:45.790Z,8.18
2019-03-08T01:45:45.764Z,8.16
2019-03-08T01:46:45.790Z,8.20
2019-03-08T01:47:45.746Z,8.20
2019-03-08T01:48:45.733Z,8.30
2019-03-08T01:49:45.723Z,8.22
2019-03-08T01:50:45.712Z,8.20
2019-03-08T01:51:45.698Z,8.22
2019-03-08T01:52:45.758Z,8.19
2019-03-08T01:53:45.677Z,8.16
2019-03-08T01:54:45.671Z,8.23
2019-03-08T01:55:45.654Z,8.26
2019-03-08T01:56:45.645Z,8.23
2019-03-08T01:57:45.637Z,8.23
2019-03-08T01:58:45.660Z,8.12
2019-03-08T01:59:45.613Z,8.20
2019-03-08T02:00:45.649Z,8.18
2019-03-08T02:01:45.591Z,8.26
2019-03-08T02:02:45.579Z,8.29
2019-03-08T02:03:45.571Z,8.22
2019-03-08T02:04:45.600Z,8.19
2019-03-08T02:05:45.548Z,8.23
2019-03-08T02:06:45.537Z,8.18
2019-03-08T02:07:45.525Z,8.25
2019-03-08T02:08:45.557Z,8.22
2019-03-08T02:09:45.507Z,8.28
2019-03-08T02:10:45.518Z,8.18
2019-03-08T02:11:45.484Z,8.20
2019-03-08T02:12:45.479Z,8.29
2019-03-08T02:13:45.461Z,8.20
2019-03-08T02:14:45.452Z,8.19
2019-03-08T02:15:45.481Z,8.29
2019-03-08T02:16:45.434Z,8.33
2019-03-08T02:17:45.420Z,8.33
2019-03-08T02:18:45.407Z,8.28
2019-03-08T02:19:45.398Z,8.33
2019-03-08T02:20:45.386Z,8.25
2019-03-08T02:21:45.412Z,8.26
2019-03-08T02:22:45.364Z,8.25
2019-03-08T02:23:45.353Z,8.30
2019-03-08T02:24:45.345Z,8.28
2019-03-08T02:25:45.748Z,8.33
2019-03-08T02:26:45.318Z,8.34
2019-03-08T02:27:45.347Z,8.30
2019-03-08T02:28:45.298Z,8.38
2019-03-08T02:29:45.287Z,8.30
2019-03-08T02:30:45.276Z,8.37
2019-03-08T02:31:45.265Z,8.28
2019-03-08T02:32:45.255Z,8.28
2019-03-08T02:33:45.280Z,8.33
2019-03-08T02:34:45.231Z,8.34
2019-03-08T02:35:45.221Z,8.36
2019-03-08T02:36:45.212Z,8.37
2019-03-08T02:37:45.212Z,8.34
2019-03-08T02:38:45.206Z,8.40
2019-03-08T02:39:45.212Z,8.38
2019-03-08T02:40:45.171Z,8.36
2019-03-08T02:41:45.157Z,8.38
2019-03-08T02:42:45.146Z,8.38
2019-03-08T02:43:45.134Z,8.38
2019-03-08T02:44:45.123Z,8.37
2019-03-08T02:45:45.151Z,8.34
2019-03-08T02:46:45.100Z,8.34
2019-03-08T02:47:45.090Z,8.36
2019-03-08T02:48:45.105Z,8.28
2019-03-08T02:49:45.071Z,8.37
2019-03-08T02:50:45.058Z,8.33
2019-03-08T02:51:45.083Z,8.33
2019-03-08T02:52:45.040Z,8.28
2019-03-08T02:53:45.026Z,8.36
2019-03-08T02:54:45.015Z,8.36
2019-03-08T02:55:45.011Z,8.36
2019-03-08T02:56:44.998Z,8.34
2019-03-08T02:57:45.020Z,8.34
2019-03-08T02:58:44.971Z,8.40
2019-03-08T02:59:44.961Z,8.29
2019-03-08T03:00:44.949Z,8.36
2019-03-08T03:01:44.942Z,8.41
2019-03-08T03:02:44.927Z,8.40
2019-03-08T03:03:44.955Z,8.36
2019-03-08T03:04:44.913Z,8.36
2019-03-08T03:05:44.896Z,8.38
2019-03-08T03:06:44.889Z,8.26
2019-03-08T03:07:44.878Z,8.33
2019-03-08T03:08:44.862Z,8.43
2019-03-08T03:09:44.890Z,8.29
2019-03-08T03:10:44.842Z,8.37
2019-03-08T03:11:44.834Z,8.37
2019-03-08T03:12:44.824Z,8.41
2019-03-08T03:13:44.813Z,8.41
2019-03-08T03:14:44.799Z,8.47
2019-03-08T03:15:44.829Z,8.43
2019-03-08T03:16:44.779Z,8.41
2019-03-08T03:17:44.766Z,8.43
2019-03-08T03:18:44.756Z,8.38
2019-03-08T03:19:44.748Z,8.43
2019-03-08T03:20:44.738Z,8.40
2019-03-08T03:21:44.761Z,8.53
2019-03-08T03:22:44.712Z,8.52
2019-03-08T03:23:44.703Z,8.48
2019-03-08T03:24:44.696Z,8.48
2019-03-08T03:25:44.684Z,8.45
2019-03-08T03:26:44.682Z,8.45
2019-03-08T03:27:44.697Z,8.45
2019-03-08T03:28:44.749Z,8.41
2019-03-08T03:29:44.638Z,8.56
2019-03-08T03:30:44.630Z,8.48
2019-03-08T03:31:44.618Z,8.43
2019-03-08T03:32:44.608Z,8.40
2019-03-08T03:33:44.632Z,8.52
2019-03-08T03:34:44.587Z,8.43
2019-03-08T03:35:44.574Z,8.55
2019-03-08T03:36:44.573Z,8.41
2019-03-08T03:37:44.553Z,8.55
2019-03-08T03:38:44.542Z,8.52
2019-03-08T03:39:44.568Z,8.55
2019-03-08T03:40:44.519Z,8.55
2019-03-08T03:41:44.514Z,8.55
2019-03-08T03:42:44.500Z,8.50
2019-03-08T03:43:44.487Z,8.58
2019-03-08T03:44:44.498Z,8.56
2019-03-08T03:45:44.504Z,8.55
2019-03-08T03:46:44.455Z,8.50
2019-03-08T03:47:44.447Z,8.59
2019-03-08T03:48:44.434Z,8.58
2019-03-08T03:49:44.423Z,8.59
2019-03-08T03:50:44.413Z,8.58
2019-03-08T03:51:44.442Z,8.63
2019-03-08T03:52:44.392Z,8.63
2019-03-08T03:53:44.382Z,8.63
2019-03-08T03:54:44.370Z,8.52
2019-03-08T03:55:44.359Z,8.62
2019-03-08T03:56:44.353Z,8.59
2019-03-08T03:57:44.374Z,8.68
2019-03-08T03:58:44.327Z,8.59
2019-03-08T03:59:44.318Z,8.62
2019-03-08T04:00:44.307Z,8.59
2019-03-08T04:01:44.296Z,8.59
2019-03-08T04:02:44.283Z,8.61
2019-03-08T04:03:44.309Z,8.66
2019-03-08T04:04:44.273Z,8.68
2019-03-08T04:05:44.254Z,8.65
2019-03-08T04:06:44.242Z,8.68
2019-03-08T04:07:44.230Z,8.63
2019-03-08T04:08:44.220Z,8.59
2019-03-08T04:09:44.284Z,8.70
2019-03-08T04:10:44.204Z,8.74
2019-03-08T04:11:44.193Z,8.68
2019-03-08T04:12:44.178Z,8.76
2019-03-08T04:13:44.167Z,8.68
2019-03-08T04:14:44.156Z,8.70
2019-03-08T04:15:44.183Z,8.73
2019-03-08T04:16:44.132Z,8.77
2019-03-08T04:17:44.122Z,8.73
2019-03-08T04:18:44.111Z,8.77
2019-03-08T04:19:44.101Z,8.79
2019-03-08T04:20:44.092Z,8.70
2019-03-08T04:21:44.115Z,8.81
2019-03-08T04:22:44.071Z,8.73
2019-03-08T04:23:44.057Z,8.79
2019-03-08T04:24:44.049Z,8.73
2019-03-08T04:25:44.036Z,8.79
2019-03-08T04:26:44.026Z,8.74
2019-03-08T04:27:44.055Z,8.84
2019-03-08T04:28:44.071Z,8.77
2019-03-08T04:29:44.042Z,8.74
2019-03-08T04:30:43.983Z,8.79
2019-03-08T04:31:43.973Z,8.73
2019-03-08T04:32:43.961Z,8.81
2019-03-08T04:33:43.984Z,8.87
2019-03-08T04:34:43.943Z,8.89
2019-03-08T04:35:43.930Z,8.89
2019-03-08T04:36:43.918Z,8.98
2019-03-08T04:37:43.907Z,8.94
2019-03-08T04:38:43.897Z,8.98
2019-03-08T04:39:43.924Z,8.98
2019-03-08T04:40:43.877Z,9.02
2019-03-08T04:41:43.867Z,9.05
2019-03-08T04:42:43.853Z,8.96
2019-03-08T04:43:43.842Z,8.95
2019-03-08T04:44:43.831Z,8.92
2019-03-08T04:45:43.859Z,8.91
2019-03-08T04:46:43.810Z,8.94
2019-03-08T04:47:43.803Z,8.99
2019-03-08T04:48:43.798Z,8.98
2019-03-08T04:49:43.777Z,8.96
2019-03-08T04:50:43.769Z,9.01
2019-03-08T04:51:43.797Z,9.08
2019-03-08T04:52:43.752Z,9.02
2019-03-08T04:53:43.735Z,9.02
2019-03-08T04:54:43.726Z,9.02
2019-03-08T04:55:43.710Z,9.13
2019-03-08T04:56:43.700Z,9.14
2019-03-08T04:57:43.733Z,9.11
2019-03-08T04:58:43.677Z,9.13
2019-03-08T04:59:43.673Z,9.10
2019-03-08T05:00:43.656Z,9.18
2019-03-08T05:01:43.647Z,9.18
2019-03-08T05:02:43.637Z,9.23
2019-03-08T05:03:43.666Z,9.20
2019-03-08T05:04:43.614Z,9.17
2019-03-08T05:05:43.603Z,9.10
2019-03-08T05:06:43.591Z,9.14
2019-03-08T05:07:43.582Z,9.10
2019-03-08T05:08:43.569Z,9.13
2019-03-08T05:09:43.595Z,9.10
2019-03-08T05:10:43.546Z,9.10
2019-03-08T05:11:43.537Z,9.13
2019-03-08T05:12:43.523Z,9.18
2019-03-08T05:13:43.512Z,9.14
2019-03-08T05:14:43.507Z,9.18
2019-03-08T05:15:43.528Z,9.18
2019-03-08T05:16:43.485Z,9.10
2019-03-08T05:17:43.467Z,9.14
2019-03-08T05:18:43.457Z,9.15
2019-03-08T05:19:43.444Z,9.24
2019-03-08T05:20:43.440Z,9.15
2019-03-08T05:21:43.462Z,9.20
2019-03-08T05:22:43.413Z,9.23
2019-03-08T05:23:43.400Z,9.17
2019-03-08T05:24:43.391Z,9.24
2019-03-08T05:25:43.378Z,9.28
2019-03-08T05:26:43.365Z,9.20
2019-03-08T05:27:43.387Z,9.23
2019-03-08T05:28:43.346Z,9.20
2019-03-08T05:29:43.346Z,9.24
2019-03-08T05:30:43.326Z,9.21
2019-03-08T05:31:43.315Z,9.28
2019-03-08T05:32:43.336Z,9.21
2019-03-08T05:33:43.288Z,9.23
2019-03-08T05:34:43.278Z,9.20
2019-03-08T05:35:43.267Z,9.20
2019-03-08T05:36:43.256Z,9.20
2019-03-08T05:37:43.251Z,9.24
2019-03-08T05:38:43.269Z,9.21
2019-03-08T05:39:43.229Z,9.23
2019-03-08T05:40:43.211Z,9.21
2019-03-08T05:41:43.199Z,9.28
2019-03-08T05:42:43.190Z,9.21
2019-03-08T05:43:43.177Z,9.23
2019-03-08T05:44:43.201Z,9.21
2019-03-08T05:45:43.156Z,9.23
2019-03-08T05:46:43.144Z,9.31
2019-03-08T05:47:43.134Z,9.24
2019-03-08T05:48:43.123Z,9.33
2019-03-08T05:49:43.111Z,9.29
2019-03-08T05:50:43.126Z,9.21
2019-03-08T05:51:43.088Z,9.23
2019-03-08T05:52:43.078Z,9.35
2019-03-08T05:53:43.071Z,9.28
2019-03-08T05:54:43.062Z,9.32
2019-03-08T05:55:43.068Z,9.35
2019-03-08T05:56:43.060Z,9.36
2019-03-08T05:57:43.020Z,9.33
2019-03-08T05:58:43.009Z,9.39
2019-03-08T05:59:42.998Z,9.39
2019-03-08T06:00:43.012Z,9.38
2019-03-08T06:01:42.977Z,9.31
2019-03-08T06:02:42.966Z,9.32
2019-03-08T06:03:42.955Z,9.35
2019-03-08T06:04:42.945Z,9.39
2019-03-08T06:05:42.974Z,9.39
2019-03-08T06:06:42.922Z,9.38
2019-03-08T06:07:42.915Z,9.39
2019-03-08T06:08:42.900Z,9.36
2019-03-08T06:09:42.892Z,9.40
2019-03-08T06:10:42.879Z,9.36
2019-03-08T06:11:42.904Z,9.50
2019-03-08T06:12:42.861Z,9.40
2019-03-08T06:13:42.845Z,9.43
2019-03-08T06:14:42.834Z,9.50
2019-03-08T06:15:42.824Z,9.46
2019-03-08T06:16:42.812Z,9.48
2019-03-08T06:17:42.838Z,9.42
2019-03-08T06:18:42.793Z,9.46
2019-03-08T06:19:42.779Z,9.53
2019-03-08T06:20:42.796Z,9.54
2019-03-08T06:21:42.756Z,9.53
2019-03-08T06:22:42.749Z,9.47
2019-03-08T06:23:42.807Z,9.51
2019-03-08T06:24:42.725Z,9.47
2019-03-08T06:25:42.713Z,9.51
2019-03-08T06:26:42.700Z,9.56
2019-03-08T06:27:42.689Z,9.60
2019-03-08T06:28:42.682Z,9.58
2019-03-08T06:29:42.704Z,9.54
2019-03-08T06:30:42.658Z,9.64
2019-03-08T06:31:42.722Z,9.58
2019-03-08T06:32:42.636Z,9.57
2019-03-08T06:33:42.623Z,9.61
2019-03-08T06:34:42.610Z,9.65
2019-03-08T06:35:42.663Z,9.58
2019-03-08T06:36:42.589Z,9.66
2019-03-08T06:37:42.595Z,9.68
2019-03-08T06:38:42.565Z,9.56
2019-03-08T06:39:42.558Z,9.66
2019-03-08T06:40:42.544Z,9.57
2019-03-08T06:41:42.575Z,9.61
2019-03-08T06:42:42.525Z,9.68
2019-03-08T06:43:42.633Z,9.72
2019-03-08T06:44:42.500Z,9.71
2019-03-08T06:45:42.491Z,9.65
2019-03-08T06:46:42.500Z,9.68
2019-03-08T06:47:42.528Z,9.65
2019-03-08T06:48:42.456Z,9.58
2019-03-08T06:49:42.465Z,9.58
2019-03-08T06:50:42.438Z,9.60
2019-03-08T06:51:42.430Z,9.56
2019-03-08T06:52:42.439Z,9.56
2019-03-08T06:53:49.449Z,9.54
2019-03-08T06:56:19.018Z,9.61
2019-03-08T06:56:51.227Z,9.64
2019-03-08T06:57:51.931Z,9.57
2019-03-08T06:58:51.173Z,9.61
2019-03-08T06:59:51.266Z,9.66
2019-03-08T07:00:51.115Z,9.65
2019-03-08T07:01:51.104Z,9.57
2019-03-08T07:02:51.181Z,9.64
2019-03-08T07:03:51.154Z,9.56
2019-03-08T07:04:51.069Z,9.60
2019-03-08T07:05:51.062Z,9.60
2019-03-08T07:06:51.095Z,9.58
2019-03-08T07:07:51.057Z,9.64
2019-03-08T07:08:51.061Z,9.60
2019-03-08T07:09:51.225Z,9.56
2019-03-08T07:10:51.043Z,9.56
2019-03-08T07:11:51.079Z,9.57
2019-03-08T07:12:51.010Z,9.50
2019-03-08T07:13:50.991Z,9.57
2019-03-08T07:14:51.056Z,9.57
2019-03-08T07:15:51.210Z,9.61
2019-03-08T07:16:50.970Z,9.53
2019-03-08T07:17:50.945Z,9.61
2019-03-08T07:18:51.859Z,9.57
2019-03-08T07:19:50.911Z,9.61
2019-03-08T07:20:50.934Z,9.64
2019-03-08T07:21:50.888Z,9.61
2019-03-08T07:22:50.879Z,9.56
2019-03-08T07:23:50.865Z,9.65
2019-03-08T07:24:50.872Z,9.57
2019-03-08T07:25:52.541Z,9.68
2019-03-08T07:26:50.835Z,9.66
2019-03-08T07:27:50.825Z,9.68
2019-03-08T07:28:50.812Z,9.65
2019-03-08T07:29:50.806Z,9.57
2019-03-08T07:30:57.597Z,9.68
2019-03-08T07:31:51.924Z,9.66
2019-03-08T07:32:50.818Z,9.66
2019-03-08T07:33:53.401Z,9.72
2019-03-08T07:34:50.747Z,9.71
2019-03-08T07:35:50.765Z,9.75
2019-03-08T07:36:50.729Z,9.72
2019-03-08T07:37:50.772Z,9.72
2019-03-08T07:38:50.705Z,9.78
2019-03-08T07:39:50.693Z,9.76
2019-03-08T07:40:50.690Z,9.72
2019-03-08T07:41:50.672Z,9.75
2019-03-08T07:42:50.669Z,9.78
2019-03-08T07:43:50.678Z,9.76
2019-03-08T07:44:50.719Z,9.68
2019-03-08T07:45:50.628Z,9.75
2019-03-08T07:46:50.618Z,9.74
2019-03-08T07:47:50.606Z,9.83
2019-03-08T07:48:50.640Z,9.76
2019-03-08T07:49:50.586Z,9.79
2019-03-08T07:50:50.582Z,9.65
2019-03-08T07:51:50.600Z,9.72
2019-03-08T07:52:50.556Z,9.76
2019-03-08T07:53:50.543Z,9.79
2019-03-08T07:54:53.151Z,9.79
2019-03-08T07:55:50.521Z,9.81
2019-03-08T07:56:50.511Z,9.87
2019-03-08T07:57:50.500Z,9.84
2019-03-08T07:58:50.501Z,9.76
2019-03-08T07:59:53.777Z,9.83
2019-03-08T08:00:50.511Z,9.84
2019-03-08T08:01:50.456Z,9.86
2019-03-08T08:02:50.446Z,9.89
2019-03-08T08:03:50.445Z,9.86
2019-03-08T08:04:50.427Z,9.86
2019-03-08T08:05:57.632Z,9.87
2019-03-08T08:06:51.438Z,9.91
2019-03-08T08:07:50.405Z,10.04
2019-03-08T08:08:51.947Z,10.07
2019-03-08T08:09:50.389Z,9.99
2019-03-08T08:10:50.360Z,10.07
2019-03-08T08:11:50.354Z,10.07
2019-03-08T08:12:50.375Z,9.99
2019-03-08T08:13:50.329Z,10.07
2019-03-08T08:14:50.334Z,9.94
2019-03-08T08:15:50.306Z,9.87
2019-03-08T08:16:50.298Z,9.86
2019-03-08T08:17:50.287Z,9.96
2019-03-08T08:18:50.310Z,9.86
2019-03-08T08:19:50.263Z,9.81
2019-03-08T08:20:50.253Z,9.74
2019-03-08T08:21:50.247Z,9.79
2019-03-08T08:22:50.229Z,9.83
2019-03-08T08:23:50.220Z,9.78
2019-03-08T08:24:50.233Z,9.79
2019-03-08T08:25:50.199Z,9.86
2019-03-08T08:26:50.187Z,9.75
2019-03-08T08:27:50.176Z,9.78
2019-03-08T08:28:50.368Z,9.79
2019-03-08T08:29:50.189Z,9.74
2019-03-08T08:30:50.144Z,9.81
2019-03-08T08:31:50.142Z,9.78
2019-03-08T08:32:50.123Z,9.81
2019-03-08T08:33:50.112Z,9.86
2019-03-08T08:34:50.101Z,9.84
2019-03-08T08:35:50.115Z,9.90
2019-03-08T08:36:50.079Z,9.84
2019-03-08T08:37:50.066Z,9.91
2019-03-08T08:38:50.062Z,9.79
2019-03-08T08:39:50.045Z,9.75
2019-03-08T08:40:50.071Z,9.81
2019-03-08T08:41:50.027Z,9.84
2019-03-08T08:42:50.012Z,9.79
2019-03-08T08:43:50.001Z,9.81
2019-03-08T08:44:49.994Z,9.74
2019-03-08T08:45:49.980Z,9.79
2019-03-08T08:46:50.009Z,9.78
2019-03-08T08:47:49.961Z,9.91
2019-03-08T08:48:49.947Z,9.83
2019-03-08T08:49:54.630Z,9.81
2019-03-08T08:50:50.933Z,9.79
2019-03-08T08:51:49.914Z,9.79
2019-03-08T08:52:49.940Z,9.76
2019-03-08T08:53:49.894Z,9.81
2019-03-08T08:54:49.881Z,9.76
2019-03-08T08:55:49.873Z,9.72
2019-03-08T08:56:49.861Z,9.74
2019-03-08T08:57:49.854Z,9.71
2019-03-08T08:58:49.878Z,9.76
2019-03-08T08:59:49.829Z,9.71
2019-03-08T09:00:49.818Z,9.74
2019-03-08T09:01:49.807Z,9.84
2019-03-08T09:02:49.798Z,9.81
2019-03-08T09:03:49.792Z,9.78
2019-03-08T09:04:49.812Z,9.78
2019-03-08T09:05:49.762Z,9.76
2019-03-08T09:06:49.752Z,9.78
2019-03-08T09:07:49.740Z,9.74
2019-03-08T09:08:49.735Z,9.76
2019-03-08T09:09:49.719Z,9.74
2019-03-08T09:10:49.743Z,9.75
2019-03-08T09:11:52.425Z,9.76
2019-03-08T09:12:49.693Z,9.83
2019-03-08T09:13:49.674Z,9.76
2019-03-08T09:14:49.666Z,9.76
2019-03-08T09:15:49.653Z,9.79
2019-03-08T09:16:49.681Z,9.84
2019-03-08T09:17:49.630Z,9.83
2019-03-08T09:18:49.625Z,9.86
2019-03-08T09:19:49.616Z,9.86
2019-03-08T09:20:49.611Z,9.86
2019-03-08T09:21:49.592Z,9.84
2019-03-08T09:22:51.446Z,9.76
2019-03-08T09:23:49.588Z,9.86
2019-03-08T09:24:49.555Z,9.81
2019-03-08T09:25:49.550Z,9.78
2019-03-08T09:26:49.541Z,9.79
2019-03-08T09:27:49.525Z,9.83
2019-03-08T09:28:49.537Z,9.74
2019-03-08T09:29:49.506Z,9.75
2019-03-08T09:30:49.493Z,9.65
2019-03-08T09:31:49.484Z,9.58
2019-03-08T09:32:58.716Z,9.60
2019-03-08T09:33:50.496Z,9.64
2019-03-08T09:35:04.422Z,9.60
2019-03-08T09:35:49.435Z,9.65
2019-03-08T09:36:49.430Z,9.57
2019-03-08T09:37:49.420Z,9.68
2019-03-08T09:38:49.423Z,9.66
2019-03-08T09:39:49.432Z,9.57
2019-03-08T09:40:49.382Z,9.61
2019-03-08T09:41:49.372Z,9.66
2019-03-08T09:42:49.371Z,9.69
2019-03-08T09:43:49.351Z,9.72
2019-03-08T09:44:49.368Z,9.78
2019-03-08T09:45:49.431Z,9.74
2019-03-08T09:46:49.613Z,9.78
2019-03-08T09:47:49.310Z,9.69
2019-03-08T09:48:49.297Z,9.81
2019-03-08T09:49:49.288Z,9.79
2019-03-08T09:50:49.275Z,9.79
2019-03-08T09:51:49.304Z,9.78
2019-03-08T09:52:49.251Z,9.86
2019-03-08T09:53:49.245Z,9.76
2019-03-08T09:54:49.232Z,9.71
2019-03-08T09:55:49.220Z,9.71
2019-03-08T09:56:49.210Z,9.56
2019-03-08T09:57:49.237Z,9.53
2019-03-08T09:58:49.190Z,9.57
2019-03-08T09:59:49.176Z,9.46
2019-03-08T10:00:53.141Z,9.53
2019-03-08T10:01:49.154Z,9.40
2019-03-08T10:02:49.144Z,9.40
2019-03-08T10:03:49.170Z,9.35
2019-03-08T10:04:49.137Z,9.31
2019-03-08T10:05:49.109Z,9.35
2019-03-08T10:06:49.101Z,9.42
2019-03-08T10:07:49.092Z,9.46
2019-03-08T10:08:49.079Z,9.43
2019-03-08T10:09:49.112Z,9.51
2019-03-08T10:10:49.059Z,9.46
2019-03-08T10:11:49.049Z,9.50
2019-03-08T10:12:49.038Z,9.60
2019-03-08T10:13:49.025Z,9.61
2019-03-08T10:14:49.012Z,9.61
2019-03-08T10:15:49.043Z,9.71
2019-03-08T10:16:48.994Z,9.72
2019-03-08T10:17:48.981Z,9.83
2019-03-08T10:18:48.972Z,9.84
2019-03-08T10:19:48.959Z,9.91
2019-03-08T10:20:48.950Z,9.91
2019-03-08T10:21:48.986Z,10.01
2019-03-08T10:22:48.926Z,9.90
2019-03-08T10:23:53.212Z,9.84
2019-03-08T10:24:48.906Z,9.87
2019-03-08T10:25:48.894Z,9.90
2019-03-08T10:26:48.882Z,9.78
2019-03-08T10:27:48.911Z,9.79
2019-03-08T10:28:48.860Z,9.83
2019-03-08T10:29:48.851Z,9.76
2019-03-08T10:30:48.842Z,9.86
2019-03-08T10:31:48.830Z,9.81
2019-03-08T10:32:48.818Z,9.76
2019-03-08T10:33:48.837Z,9.79
2019-03-08T10:34:48.798Z,10.07
2019-03-08T10:35:48.788Z,10.08
2019-03-08T10:36:48.779Z,10.18
2019-03-08T10:37:48.767Z,10.32
2019-03-08T10:38:48.792Z,10.38
2019-03-08T10:39:48.746Z,10.36
2019-03-08T10:40:48.736Z,10.42
2019-03-08T10:41:48.735Z,10.45
2019-03-08T10:42:48.766Z,10.45
2019-03-08T10:43:48.724Z,10.42
2019-03-08T10:44:48.868Z,10.47
2019-03-08T10:45:48.678Z,10.34
2019-03-08T10:46:48.670Z,10.44
2019-03-08T10:47:55.825Z,10.30
2019-03-08T10:48:49.645Z,10.26
2019-03-08T10:49:55.070Z,10.26
2019-03-08T10:50:51.631Z,10.42
2019-03-08T10:51:48.615Z,10.40
2019-03-08T10:52:48.669Z,10.44
2019-03-08T10:53:48.593Z,10.56
2019-03-08T10:54:48.604Z,10.59
2019-03-08T10:55:48.570Z,10.59
2019-03-08T10:56:48.606Z,10.40
2019-03-08T10:57:48.549Z,10.47
2019-03-08T10:58:48.540Z,10.56
2019-03-08T10:59:48.547Z,10.41
2019-03-08T11:00:48.555Z,10.33
2019-03-08T11:01:48.504Z,10.20
2019-03-08T11:02:48.572Z,9.96
2019-03-08T11:03:48.483Z,9.97
2019-03-08T11:04:48.477Z,9.75
2019-03-08T11:05:48.509Z,9.75
2019-03-08T11:06:48.451Z,9.56
2019-03-08T11:07:48.440Z,9.58
2019-03-08T11:08:48.508Z,9.58
2019-03-08T11:09:48.416Z,9.68
2019-03-08T11:10:48.531Z,9.68
2019-03-08T11:11:48.397Z,9.64
2019-03-08T11:12:48.438Z,9.51
2019-03-08T11:13:48.480Z,9.33
2019-03-08T11:14:48.403Z,9.20
2019-03-08T11:15:48.354Z,9.10
2019-03-08T11:16:48.343Z,9.08
2019-03-08T11:17:51.072Z,8.94
2019-03-08T11:18:48.321Z,8.66
2019-03-08T11:19:48.351Z,8.25
2019-03-08T11:20:48.414Z,8.11
2019-03-08T11:21:48.288Z,7.98
2019-03-08T11:22:48.301Z,7.87
2019-03-08T11:23:48.270Z,7.60
2019-03-08T11:24:48.259Z,7.64
2019-03-08T11:25:49.115Z,7.58
2019-03-08T11:26:48.273Z,7.50
2019-03-08T11:27:48.225Z,7.48
2019-03-08T11:28:48.215Z,7.45
2019-03-08T11:29:48.252Z,7.42
2019-03-08T11:30:53.911Z,7.46
2019-03-08T11:31:49.220Z,7.35
2019-03-08T11:32:48.169Z,7.42
2019-03-08T11:33:48.162Z,7.42
2019-03-08T11:34:52.151Z,7.35
2019-03-08T11:35:48.137Z,7.45
2019-03-08T11:36:48.127Z,7.35
2019-03-08T11:37:48.150Z,7.34
2019-03-08T11:38:48.110Z,7.31
2019-03-08T11:39:48.092Z,7.31
2019-03-08T11:40:48.081Z,7.24
2019-03-08T11:41:48.079Z,7.03
2019-03-08T11:42:48.066Z,6.94
2019-03-08T11:43:48.087Z,7.03
2019-03-08T11:44:48.039Z,6.77
2019-03-08T11:45:48.028Z,6.77
2019-03-08T11:46:48.020Z,6.79
2019-03-08T11:47:48.028Z,6.88
2019-03-08T11:48:47.999Z,7.05
2019-03-08T11:49:48.093Z,7.12
2019-03-08T11:50:47.978Z,7.31
2019-03-08T11:51:47.967Z,7.58
2019-03-08T11:52:47.959Z,7.87
2019-03-08T11:53:55.935Z,7.82
2019-03-08T11:54:48.969Z,7.58
2019-03-08T11:55:47.924Z,7.60
2019-03-08T11:56:55.935Z,7.71
2019-03-08T11:57:48.902Z,7.79
2019-03-08T11:58:47.890Z,7.87
2019-03-08T11:59:47.881Z,7.75
2019-03-08T12:00:47.907Z,7.95
2019-03-08T12:01:47.864Z,8.36
2019-03-08T12:02:47.851Z,9.50
2019-03-08T12:03:47.842Z,10.40
2019-03-08T12:04:47.828Z,10.82
2019-03-08T12:05:49.827Z,11.22
2019-03-08T12:06:47.842Z,10.64
2019-03-08T12:07:47.795Z,11.18
2019-03-08T12:08:47.793Z,11.49
2019-03-08T12:09:47.774Z,11.85
2019-03-08T12:10:47.768Z,11.04
2019-03-08T12:11:47.752Z,10.53
2019-03-08T12:12:47.779Z,10.88
2019-03-08T12:13:47.731Z,11.44
2019-03-08T12:14:47.719Z,11.40
2019-03-08T12:15:47.708Z,11.39
2019-03-08T12:16:47.698Z,11.32
2019-03-08T12:17:47.689Z,11.40
2019-03-08T12:18:47.713Z,11.40
2019-03-08T12:19:47.666Z,11.90
2019-03-08T12:20:47.654Z,11.76
2019-03-08T12:21:47.643Z,12.17
2019-03-08T12:22:47.633Z,12.29
2019-03-08T12:23:47.624Z,12.07
2019-03-08T12:24:47.650Z,12.17
2019-03-08T12:25:47.601Z,12.21
2019-03-08T12:26:47.591Z,11.86
2019-03-08T12:27:47.580Z,11.76
2019-03-08T12:28:47.621Z,11.88
2019-03-08T12:29:47.559Z,11.83
2019-03-08T12:30:47.572Z,12.10
2019-03-08T12:31:47.537Z,12.20
2019-03-08T12:32:47.526Z,12.56
2019-03-08T12:33:47.516Z,12.96
2019-03-08T12:34:47.505Z,12.79
2019-03-08T12:35:47.519Z,12.72
2019-03-08T12:36:47.482Z,12.86
2019-03-08T12:37:47.470Z,13.12
2019-03-08T12:38:47.462Z,13.04
2019-03-08T12:39:47.452Z,12.87
2019-03-08T12:40:47.480Z,13.03
2019-03-08T12:41:47.428Z,13.11
2019-03-08T12:42:47.416Z,13.23
2019-03-08T12:43:47.406Z,13.59
2019-03-08T12:44:47.395Z,13.69
2019-03-08T12:45:47.388Z,13.89
2019-03-08T12:46:47.445Z,13.67
2019-03-08T12:47:47.364Z,13.30
2019-03-08T12:48:47.355Z,13.36
2019-03-08T12:49:47.347Z,12.82
2019-03-08T12:50:47.331Z,12.34
2019-03-08T12:51:47.360Z,12.19
2019-03-08T12:52:47.336Z,11.76
2019-03-08T12:53:47.300Z,11.51
2019-03-08T12:54:47.290Z,11.36
2019-03-08T12:55:47.277Z,11.14
2019-03-08T12:56:47.268Z,10.96
2019-03-08T12:57:47.293Z,10.71
2019-03-08T12:58:47.265Z,10.68
2019-03-08T12:59:47.245Z,10.67
2019-03-08T13:00:47.225Z,10.55
2019-03-08T13:01:47.220Z,10.44
2019-03-08T13:02:47.204Z,10.41
2019-03-08T13:03:47.219Z,10.47
2019-03-08T13:04:47.180Z,10.85
2019-03-08T13:05:47.170Z,10.82
2019-03-08T13:06:47.159Z,10.63
2019-03-08T13:07:47.148Z,10.42
2019-03-08T13:08:47.178Z,10.51
2019-03-08T13:09:47.127Z,11.33
2019-03-08T13:10:47.159Z,11.14
2019-03-08T13:11:47.113Z,10.79
2019-03-08T13:12:47.098Z,10.73
2019-03-08T13:13:47.088Z,10.61
2019-03-08T13:14:47.101Z,10.53
2019-03-08T13:15:47.064Z,10.51